Terminal Aerodrome Forecast
Issued by NWS

Home | Current Version | Previous Version | Graphics & Text | Print | Product List | Glossary On
Versions: 1 2 3 4 5 6 7 8 9 10 11 12 13 14 15 16 17
146
FTUS43 KBIS 100528
TAFJMS
TAF
KJMS 100528Z 1006/1106 31006KT P6SM SKC
     FM101500 12007KT P6SM BKN100
     FM101800 12005KT P6SM -SN BKN025
     FM110000 09010KT P6SM -SN OVC015
     FM110500 08009KT 2SM -SN OVC010=

USA.gov is the U.S. government's official web portal to all federal, state and local government web resources and services.